sensor_id;sensor_type;location;lat;lon;timestamp;P1;durP1;ratioP1;P2;durP2;ratioP2
7295;SDS011;40758;54.038;11.684;2023-07-02T00:00:05;1.33;;;1.23;;
7295;SDS011;40758;54.038;11.684;2023-07-02T00:02:33;0.93;;;0.65;;
7295;SDS011;40758;54.038;11.684;2023-07-02T00:05:00;0.93;;;0.63;;
7295;SDS011;40758;54.038;11.684;2023-07-02T00:07:27;1.35;;;0.80;;
7295;SDS011;40758;54.038;11.684;2023-07-02T00:09:54;0.95;;;0.60;;
7295;SDS011;40758;54.038;11.684;2023-07-02T00:12:21;0.90;;;0.40;;
7295;SDS011;40758;54.038;11.684;2023-07-02T00:17:19;0.82;;;0.63;;
7295;SDS011;40758;54.038;11.684;2023-07-02T00:19:48;0.80;;;0.30;;
7295;SDS011;40758;54.038;11.684;2023-07-02T00:22:19;1.45;;;0.60;;
7295;SDS011;40758;54.038;11.684;2023-07-02T00:24:47;0.63;;;0.32;;
7295;SDS011;40758;54.038;11.684;2023-07-02T00:27:14;1.88;;;1.58;;
7295;SDS011;40758;54.038;11.684;2023-07-02T00:29:41;0.75;;;0.65;;
7295;SDS011;40758;54.038;11.684;2023-07-02T00:32:07;1.05;;;0.50;;
7295;SDS011;40758;54.038;11.684;2023-07-02T00:34:34;1.00;;;0.45;;
7295;SDS011;40758;54.038;11.684;2023-07-02T00:37:01;0.70;;;0.50;;
7295;SDS011;40758;54.038;11.684;2023-07-02T00:39:28;1.23;;;1.08;;
7295;SDS011;40758;54.038;11.684;2023-07-02T00:41:59;1.17;;;1.08;;
7295;SDS011;40758;54.038;11.684;2023-07-02T00:44:27;0.75;;;0.40;;
7295;SDS011;40758;54.038;11.684;2023-07-02T00:46:54;0.80;;;0.40;;
7295;SDS011;40758;54.038;11.684;2023-07-02T00:49:22;1.20;;;0.68;;
7295;SDS011;40758;54.038;11.684;2023-07-02T00:51:49;0.70;;;0.57;;
7295;SDS011;40758;54.038;11.684;2023-07-02T00:54:16;0.98;;;0.65;;
7295;SDS011;40758;54.038;11.684;2023-07-02T00:56:43;1.13;;;0.70;;
7295;SDS011;40758;54.038;11.684;2023-07-02T00:59:12;1.23;;;0.60;;
7295;SDS011;40758;54.038;11.684;2023-07-02T01:01:39;1.48;;;0.95;;
7295;SDS011;40758;54.038;11.684;2023-07-02T01:04:06;4.22;;;1.13;;
7295;SDS011;40758;54.038;11.684;2023-07-02T01:06:39;2.00;;;1.20;;
7295;SDS011;40758;54.038;11.684;2023-07-02T01:09:08;0.88;;;0.75;;
7295;SDS011;40758;54.038;11.684;2023-07-02T01:11:40;2.30;;;1.40;;
7295;SDS011;40758;54.038;11.684;2023-07-02T01:14:30;2.40;;;2.25;;
7295;SDS011;40758;54.038;11.684;2023-07-02T01:17:05;0.95;;;0.60;;
7295;SDS011;40758;54.038;11.684;2023-07-02T01:22:10;0.95;;;0.65;;
7295;SDS011;40758;54.038;11.684;2023-07-02T01:27:06;1.90;;;1.70;;
7295;SDS011;40758;54.038;11.684;2023-07-02T01:29:33;3.42;;;1.27;;
7295;SDS011;40758;54.038;11.684;2023-07-02T01:32:03;4.53;;;3.95;;
7295;SDS011;40758;54.038;11.684;2023-07-02T01:34:31;9.10;;;3.22;;
7295;SDS011;40758;54.038;11.684;2023-07-02T01:36:58;8.77;;;3.47;;
7295;SDS011;40758;54.038;11.684;2023-07-02T01:39:25;8.27;;;3.83;;
7295;SDS011;40758;54.038;11.684;2023-07-02T01:41:52;7.15;;;3.30;;
7295;SDS011;40758;54.038;11.684;2023-07-02T01:44:20;8.40;;;3.60;;
7295;SDS011;40758;54.038;11.684;2023-07-02T01:46:48;6.20;;;2.33;;
7295;SDS011;40758;54.038;11.684;2023-07-02T01:49:16;6.57;;;2.33;;
7295;SDS011;40758;54.038;11.684;2023-07-02T01:54:23;7.22;;;2.25;;
7295;SDS011;40758;54.038;11.684;2023-07-02T01:56:51;8.77;;;3.50;;
7295;SDS011;40758;54.038;11.684;2023-07-02T01:59:17;10.20;;;3.38;;
7295;SDS011;40758;54.038;11.684;2023-07-02T02:01:44;5.00;;;2.42;;
7295;SDS011;40758;54.038;11.684;2023-07-02T02:04:11;8.10;;;3.08;;
7295;SDS011;40758;54.038;11.684;2023-07-02T02:06:39;5.93;;;4.07;;
7295;SDS011;40758;54.038;11.684;2023-07-02T02:09:06;7.63;;;3.85;;
7295;SDS011;40758;54.038;11.684;2023-07-02T02:11:37;6.38;;;3.08;;
7295;SDS011;40758;54.038;11.684;2023-07-02T02:14:05;9.18;;;2.83;;
7295;SDS011;40758;54.038;11.684;2023-07-02T02:16:32;4.90;;;3.20;;
7295;SDS011;40758;54.038;11.684;2023-07-02T02:19:02;6.35;;;3.70;;
7295;SDS011;40758;54.038;11.684;2023-07-02T02:21:29;6.63;;;2.70;;
7295;SDS011;40758;54.038;11.684;2023-07-02T02:23:56;8.35;;;2.72;;
7295;SDS011;40758;54.038;11.684;2023-07-02T02:26:24;10.25;;;4.28;;
7295;SDS011;40758;54.038;11.684;2023-07-02T02:28:51;8.52;;;2.13;;
7295;SDS011;40758;54.038;11.684;2023-07-02T02:31:18;8.32;;;3.67;;
7295;SDS011;40758;54.038;11.684;2023-07-02T02:33:47;10.07;;;2.85;;
7295;SDS011;40758;54.038;11.684;2023-07-02T02:36:15;9.23;;;5.63;;
7295;SDS011;40758;54.038;11.684;2023-07-02T02:38:42;6.88;;;2.70;;
7295;SDS011;40758;54.038;11.684;2023-07-02T02:41:08;9.88;;;3.28;;
7295;SDS011;40758;54.038;11.684;2023-07-02T02:43:35;9.82;;;3.17;;
7295;SDS011;40758;54.038;11.684;2023-07-02T02:46:02;9.18;;;3.88;;
7295;SDS011;40758;54.038;11.684;2023-07-02T02:48:29;6.97;;;3.15;;
7295;SDS011;40758;54.038;11.684;2023-07-02T02:50:56;9.18;;;4.00;;
7295;SDS011;40758;54.038;11.684;2023-07-02T02:53:22;5.50;;;2.85;;
7295;SDS011;40758;54.038;11.684;2023-07-02T02:55:49;8.30;;;3.70;;
7295;SDS011;40758;54.038;11.684;2023-07-02T02:58:16;11.20;;;3.47;;
7295;SDS011;40758;54.038;11.684;2023-07-02T03:00:42;10.25;;;3.90;;
7295;SDS011;40758;54.038;11.684;2023-07-02T03:03:12;8.38;;;3.78;;
7295;SDS011;40758;54.038;11.684;2023-07-02T03:05:40;5.53;;;3.38;;
7295;SDS011;40758;54.038;11.684;2023-07-02T03:08:07;8.32;;;3.10;;
7295;SDS011;40758;54.038;11.684;2023-07-02T03:10:34;5.75;;;3.20;;
7295;SDS011;40758;54.038;11.684;2023-07-02T03:13:00;6.60;;;3.50;;
7295;SDS011;40758;54.038;11.684;2023-07-02T03:15:27;11.18;;;4.85;;
7295;SDS011;40758;54.038;11.684;2023-07-02T03:17:54;5.68;;;3.80;;
7295;SDS011;40758;54.038;11.684;2023-07-02T03:20:21;10.90;;;6.57;;
7295;SDS011;40758;54.038;11.684;2023-07-02T03:22:48;7.43;;;2.95;;
7295;SDS011;40758;54.038;11.684;2023-07-02T03:25:15;8.95;;;3.58;;
7295;SDS011;40758;54.038;11.684;2023-07-02T03:27:42;5.90;;;3.97;;
7295;SDS011;40758;54.038;11.684;2023-07-02T03:30:09;7.00;;;3.53;;
7295;SDS011;40758;54.038;11.684;2023-07-02T03:32:36;9.35;;;4.88;;
7295;SDS011;40758;54.038;11.684;2023-07-02T03:35:03;10.48;;;3.45;;
7295;SDS011;40758;54.038;11.684;2023-07-02T03:37:30;5.55;;;3.17;;
7295;SDS011;40758;54.038;11.684;2023-07-02T03:39:56;7.75;;;3.00;;
7295;SDS011;40758;54.038;11.684;2023-07-02T03:42:25;5.20;;;2.45;;
7295;SDS011;40758;54.038;11.684;2023-07-02T03:44:51;5.90;;;2.78;;
7295;SDS011;40758;54.038;11.684;2023-07-02T03:47:18;8.45;;;3.38;;
7295;SDS011;40758;54.038;11.684;2023-07-02T03:49:47;5.10;;;2.67;;
7295;SDS011;40758;54.038;11.684;2023-07-02T03:52:13;7.93;;;5.38;;
7295;SDS011;40758;54.038;11.684;2023-07-02T03:54:40;6.25;;;3.55;;
7295;SDS011;40758;54.038;11.684;2023-07-02T03:57:07;9.43;;;3.78;;
7295;SDS011;40758;54.038;11.684;2023-07-02T03:59:34;5.97;;;2.72;;
7295;SDS011;40758;54.038;11.684;2023-07-02T04:02:01;10.18;;;4.38;;
7295;SDS011;40758;54.038;11.684;2023-07-02T04:04:28;5.18;;;3.42;;
7295;SDS011;40758;54.038;11.684;2023-07-02T04:06:55;8.80;;;4.07;;
7295;SDS011;40758;54.038;11.684;2023-07-02T04:09:22;8.93;;;4.30;;
7295;SDS011;40758;54.038;11.684;2023-07-02T04:11:49;8.52;;;3.65;;
7295;SDS011;40758;54.038;11.684;2023-07-02T04:14:16;6.25;;;4.05;;
7295;SDS011;40758;54.038;11.684;2023-07-02T04:16:43;8.40;;;4.38;;
7295;SDS011;40758;54.038;11.684;2023-07-02T04:21:38;10.38;;;5.00;;
7295;SDS011;40758;54.038;11.684;2023-07-02T04:24:05;8.90;;;3.80;;
7295;SDS011;40758;54.038;11.684;2023-07-02T04:26:32;8.13;;;3.47;;
7295;SDS011;40758;54.038;11.684;2023-07-02T04:29:19;9.55;;;5.43;;
7295;SDS011;40758;54.038;11.684;2023-07-02T04:31:48;7.70;;;5.38;;
7295;SDS011;40758;54.038;11.684;2023-07-02T04:34:16;10.73;;;2.97;;
7295;SDS011;40758;54.038;11.684;2023-07-02T04:36:43;10.07;;;5.95;;
7295;SDS011;40758;54.038;11.684;2023-07-02T04:39:09;9.88;;;3.83;;
7295;SDS011;40758;54.038;11.684;2023-07-02T04:41:37;8.75;;;5.38;;
7295;SDS011;40758;54.038;11.684;2023-07-02T04:44:04;8.65;;;3.47;;
7295;SDS011;40758;54.038;11.684;2023-07-02T04:46:30;6.72;;;4.28;;
7295;SDS011;40758;54.038;11.684;2023-07-02T04:48:58;7.05;;;4.18;;
7295;SDS011;40758;54.038;11.684;2023-07-02T04:51:24;9.77;;;5.55;;
7295;SDS011;40758;54.038;11.684;2023-07-02T04:53:51;10.10;;;4.00;;
7295;SDS011;40758;54.038;11.684;2023-07-02T04:56:18;7.80;;;3.60;;
7295;SDS011;40758;54.038;11.684;2023-07-02T04:58:44;7.45;;;3.50;;
7295;SDS011;40758;54.038;11.684;2023-07-02T05:01:11;5.80;;;3.83;;
7295;SDS011;40758;54.038;11.684;2023-07-02T05:03:38;6.95;;;3.13;;
7295;SDS011;40758;54.038;11.684;2023-07-02T05:06:05;7.50;;;3.30;;
7295;SDS011;40758;54.038;11.684;2023-07-02T05:08:32;4.47;;;3.03;;
7295;SDS011;40758;54.038;11.684;2023-07-02T05:10:59;6.35;;;3.08;;
7295;SDS011;40758;54.038;11.684;2023-07-02T05:13:25;7.10;;;3.45;;
7295;SDS011;40758;54.038;11.684;2023-07-02T05:15:52;7.32;;;5.25;;
7295;SDS011;40758;54.038;11.684;2023-07-02T05:18:19;7.53;;;3.08;;
7295;SDS011;40758;54.038;11.684;2023-07-02T05:23:14;7.70;;;4.38;;
7295;SDS011;40758;54.038;11.684;2023-07-02T05:25:41;5.85;;;3.33;;
7295;SDS011;40758;54.038;11.684;2023-07-02T05:28:07;9.65;;;4.47;;
7295;SDS011;40758;54.038;11.684;2023-07-02T05:30:34;6.03;;;2.65;;
7295;SDS011;40758;54.038;11.684;2023-07-02T05:33:01;6.85;;;3.33;;
7295;SDS011;40758;54.038;11.684;2023-07-02T05:35:27;6.28;;;3.05;;
7295;SDS011;40758;54.038;11.684;2023-07-02T05:37:54;6.68;;;3.25;;
7295;SDS011;40758;54.038;11.684;2023-07-02T05:40:21;9.55;;;3.80;;
7295;SDS011;40758;54.038;11.684;2023-07-02T05:42:48;8.23;;;4.00;;
7295;SDS011;40758;54.038;11.684;2023-07-02T05:45:15;6.25;;;2.80;;
7295;SDS011;40758;54.038;11.684;2023-07-02T05:47:42;7.35;;;4.97;;
7295;SDS011;40758;54.038;11.684;2023-07-02T05:50:08;5.90;;;3.40;;
7295;SDS011;40758;54.038;11.684;2023-07-02T05:52:35;6.40;;;3.70;;
7295;SDS011;40758;54.038;11.684;2023-07-02T05:55:03;7.57;;;3.05;;
7295;SDS011;40758;54.038;11.684;2023-07-02T05:57:30;7.00;;;3.88;;
7295;SDS011;40758;54.038;11.684;2023-07-02T05:59:56;6.53;;;5.60;;
7295;SDS011;40758;54.038;11.684;2023-07-02T06:02:23;7.45;;;5.82;;
7295;SDS011;40758;54.038;11.684;2023-07-02T06:04:50;4.80;;;2.22;;
7295;SDS011;40758;54.038;11.684;2023-07-02T06:07:17;8.70;;;3.42;;
7295;SDS011;40758;54.038;11.684;2023-07-02T06:09:44;9.23;;;4.28;;
7295;SDS011;40758;54.038;11.684;2023-07-02T06:12:10;6.57;;;3.05;;
7295;SDS011;40758;54.038;11.684;2023-07-02T06:14:37;11.82;;;3.63;;
7295;SDS011;40758;54.038;11.684;2023-07-02T06:17:04;9.02;;;3.35;;
7295;SDS011;40758;54.038;11.684;2023-07-02T06:19:34;9.63;;;6.03;;
7295;SDS011;40758;54.038;11.684;2023-07-02T06:22:00;11.23;;;6.13;;
7295;SDS011;40758;54.038;11.684;2023-07-02T06:24:27;8.55;;;4.53;;
7295;SDS011;40758;54.038;11.684;2023-07-02T06:26:54;9.82;;;4.03;;
7295;SDS011;40758;54.038;11.684;2023-07-02T06:29:22;11.13;;;6.30;;
7295;SDS011;40758;54.038;11.684;2023-07-02T06:31:50;10.05;;;4.15;;
7295;SDS011;40758;54.038;11.684;2023-07-02T06:39:10;8.40;;;3.30;;
7295;SDS011;40758;54.038;11.684;2023-07-02T06:41:37;9.45;;;3.88;;
7295;SDS011;40758;54.038;11.684;2023-07-02T06:44:04;7.72;;;2.45;;
7295;SDS011;40758;54.038;11.684;2023-07-02T06:46:31;9.70;;;3.85;;
7295;SDS011;40758;54.038;11.684;2023-07-02T06:48:59;9.13;;;3.20;;
7295;SDS011;40758;54.038;11.684;2023-07-02T06:51:26;8.13;;;3.40;;
7295;SDS011;40758;54.038;11.684;2023-07-02T06:53:53;8.00;;;2.63;;
7295;SDS011;40758;54.038;11.684;2023-07-02T06:56:21;10.85;;;4.90;;
7295;SDS011;40758;54.038;11.684;2023-07-02T06:58:48;11.85;;;3.78;;
7295;SDS011;40758;54.038;11.684;2023-07-02T07:01:16;8.43;;;3.08;;
7295;SDS011;40758;54.038;11.684;2023-07-02T07:03:42;9.32;;;3.00;;
7295;SDS011;40758;54.038;11.684;2023-07-02T07:06:09;7.57;;;2.72;;
7295;SDS011;40758;54.038;11.684;2023-07-02T07:11:05;6.40;;;2.05;;
7295;SDS011;40758;54.038;11.684;2023-07-02T07:13:32;6.90;;;2.72;;
7295;SDS011;40758;54.038;11.684;2023-07-02T07:15:59;11.65;;;3.92;;
7295;SDS011;40758;54.038;11.684;2023-07-02T07:18:26;9.32;;;4.45;;
7295;SDS011;40758;54.038;11.684;2023-07-02T07:20:56;9.13;;;3.53;;
7295;SDS011;40758;54.038;11.684;2023-07-02T07:23:23;9.27;;;3.83;;
7295;SDS011;40758;54.038;11.684;2023-07-02T07:25:49;9.73;;;7.93;;
7295;SDS011;40758;54.038;11.684;2023-07-02T07:28:17;7.68;;;3.35;;
7295;SDS011;40758;54.038;11.684;2023-07-02T07:30:44;10.55;;;3.70;;
7295;SDS011;40758;54.038;11.684;2023-07-02T07:33:11;9.35;;;4.88;;
7295;SDS011;40758;54.038;11.684;2023-07-02T07:35:38;11.50;;;3.17;;
7295;SDS011;40758;54.038;11.684;2023-07-02T07:38:04;7.65;;;2.85;;
7295;SDS011;40758;54.038;11.684;2023-07-02T07:40:31;6.97;;;5.00;;
7295;SDS011;40758;54.038;11.684;2023-07-02T07:42:58;6.95;;;2.58;;
7295;SDS011;40758;54.038;11.684;2023-07-02T07:45:25;7.28;;;3.97;;
7295;SDS011;40758;54.038;11.684;2023-07-02T07:47:51;11.20;;;6.25;;
7295;SDS011;40758;54.038;11.684;2023-07-02T07:50:18;10.85;;;3.70;;
7295;SDS011;40758;54.038;11.684;2023-07-02T07:52:47;7.40;;;3.22;;
7295;SDS011;40758;54.038;11.684;2023-07-02T07:55:14;8.25;;;3.13;;
7295;SDS011;40758;54.038;11.684;2023-07-02T07:57:41;10.60;;;3.40;;
7295;SDS011;40758;54.038;11.684;2023-07-02T08:00:08;8.95;;;3.67;;
7295;SDS011;40758;54.038;11.684;2023-07-02T08:02:38;6.90;;;3.65;;
7295;SDS011;40758;54.038;11.684;2023-07-02T08:05:05;7.07;;;3.17;;
7295;SDS011;40758;54.038;11.684;2023-07-02T08:07:33;8.45;;;2.88;;
7295;SDS011;40758;54.038;11.684;2023-07-02T08:10:00;8.02;;;2.97;;
7295;SDS011;40758;54.038;11.684;2023-07-02T08:12:28;12.43;;;2.90;;
7295;SDS011;40758;54.038;11.684;2023-07-02T08:14:58;8.82;;;3.30;;
7295;SDS011;40758;54.038;11.684;2023-07-02T08:17:25;10.35;;;3.70;;
7295;SDS011;40758;54.038;11.684;2023-07-02T08:19:52;6.53;;;2.70;;
7295;SDS011;40758;54.038;11.684;2023-07-02T08:22:19;10.02;;;3.25;;
7295;SDS011;40758;54.038;11.684;2023-07-02T08:24:46;13.30;;;3.63;;
7295;SDS011;40758;54.038;11.684;2023-07-02T08:27:16;9.10;;;2.88;;
7295;SDS011;40758;54.038;11.684;2023-07-02T08:29:47;8.82;;;5.15;;
7295;SDS011;40758;54.038;11.684;2023-07-02T08:32:15;7.15;;;2.70;;
7295;SDS011;40758;54.038;11.684;2023-07-02T08:34:43;8.98;;;3.40;;
7295;SDS011;40758;54.038;11.684;2023-07-02T08:37:09;8.40;;;2.58;;
7295;SDS011;40758;54.038;11.684;2023-07-02T08:39:37;5.97;;;2.65;;
7295;SDS011;40758;54.038;11.684;2023-07-02T08:42:06;8.50;;;2.72;;
7295;SDS011;40758;54.038;11.684;2023-07-02T08:44:33;9.55;;;2.65;;
7295;SDS011;40758;54.038;11.684;2023-07-02T08:47:02;8.90;;;2.72;;
7295;SDS011;40758;54.038;11.684;2023-07-02T08:49:29;11.68;;;4.00;;
7295;SDS011;40758;54.038;11.684;2023-07-02T08:51:56;10.93;;;3.88;;
7295;SDS011;40758;54.038;11.684;2023-07-02T08:54:23;8.30;;;2.22;;
7295;SDS011;40758;54.038;11.684;2023-07-02T08:56:49;10.85;;;4.28;;
7295;SDS011;40758;54.038;11.684;2023-07-02T08:59:17;14.00;;;3.47;;
7295;SDS011;40758;54.038;11.684;2023-07-02T09:01:47;12.88;;;2.70;;
7295;SDS011;40758;54.038;11.684;2023-07-02T09:04:22;10.20;;;4.65;;
7295;SDS011;40758;54.038;11.684;2023-07-02T09:07:02;14.15;;;5.72;;
7295;SDS011;40758;54.038;11.684;2023-07-02T09:09:30;8.18;;;2.53;;
7295;SDS011;40758;54.038;11.684;2023-07-02T09:11:57;6.35;;;1.83;;
7295;SDS011;40758;54.038;11.684;2023-07-02T09:14:28;7.40;;;2.65;;
7295;SDS011;40758;54.038;11.684;2023-07-02T09:17:03;6.93;;;2.80;;
7295;SDS011;40758;54.038;11.684;2023-07-02T09:19:35;4.40;;;1.95;;
7295;SDS011;40758;54.038;11.684;2023-07-02T09:22:03;7.28;;;3.13;;
7295;SDS011;40758;54.038;11.684;2023-07-02T09:24:30;6.18;;;1.67;;
7295;SDS011;40758;54.038;11.684;2023-07-02T09:26:59;6.45;;;3.65;;
7295;SDS011;40758;54.038;11.684;2023-07-02T09:32:01;6.15;;;2.58;;
7295;SDS011;40758;54.038;11.684;2023-07-02T09:34:37;8.13;;;2.50;;
7295;SDS011;40758;54.038;11.684;2023-07-02T09:37:05;7.95;;;5.03;;
7295;SDS011;40758;54.038;11.684;2023-07-02T09:39:35;6.95;;;3.28;;
7295;SDS011;40758;54.038;11.684;2023-07-02T09:42:06;6.88;;;2.60;;
7295;SDS011;40758;54.038;11.684;2023-07-02T09:44:34;8.13;;;2.47;;
7295;SDS011;40758;54.038;11.684;2023-07-02T09:49:37;6.90;;;3.35;;
7295;SDS011;40758;54.038;11.684;2023-07-02T09:52:05;12.80;;;3.65;;
7295;SDS011;40758;54.038;11.684;2023-07-02T09:54:34;9.63;;;2.88;;
7295;SDS011;40758;54.038;11.684;2023-07-02T09:57:01;9.52;;;3.03;;
7295;SDS011;40758;54.038;11.684;2023-07-02T09:59:29;10.07;;;2.60;;
7295;SDS011;40758;54.038;11.684;2023-07-02T10:01:56;7.93;;;3.10;;
7295;SDS011;40758;54.038;11.684;2023-07-02T10:04:24;9.38;;;3.70;;
7295;SDS011;40758;54.038;11.684;2023-07-02T10:12:25;9.30;;;3.10;;
7295;SDS011;40758;54.038;11.684;2023-07-02T10:14:53;9.95;;;3.67;;
7295;SDS011;40758;54.038;11.684;2023-07-02T10:17:31;9.48;;;3.78;;
7295;SDS011;40758;54.038;11.684;2023-07-02T10:20:04;10.32;;;3.97;;
7295;SDS011;40758;54.038;11.684;2023-07-02T10:22:44;7.82;;;2.67;;
7295;SDS011;40758;54.038;11.684;2023-07-02T10:25:12;8.70;;;2.78;;
7295;SDS011;40758;54.038;11.684;2023-07-02T10:27:41;8.45;;;2.75;;
7295;SDS011;40758;54.038;11.684;2023-07-02T10:30:11;9.68;;;3.78;;
7295;SDS011;40758;54.038;11.684;2023-07-02T10:32:38;7.60;;;3.60;;
7295;SDS011;40758;54.038;11.684;2023-07-02T10:35:14;10.95;;;3.83;;
7295;SDS011;40758;54.038;11.684;2023-07-02T10:37:42;9.13;;;2.67;;
7295;SDS011;40758;54.038;11.684;2023-07-02T10:40:10;8.75;;;4.90;;
7295;SDS011;40758;54.038;11.684;2023-07-02T10:42:50;11.23;;;3.58;;
7295;SDS011;40758;54.038;11.684;2023-07-02T10:47:47;6.57;;;3.35;;
7295;SDS011;40758;54.038;11.684;2023-07-02T10:50:17;8.25;;;2.80;;
7295;SDS011;40758;54.038;11.684;2023-07-02T10:52:49;8.18;;;3.28;;
7295;SDS011;40758;54.038;11.684;2023-07-02T10:55:22;9.85;;;3.15;;
7295;SDS011;40758;54.038;11.684;2023-07-02T10:58:01;7.10;;;4.13;;
7295;SDS011;40758;54.038;11.684;2023-07-02T11:00:29;8.38;;;2.83;;
7295;SDS011;40758;54.038;11.684;2023-07-02T11:02:56;8.15;;;3.10;;
7295;SDS011;40758;54.038;11.684;2023-07-02T11:05:23;6.63;;;2.63;;
7295;SDS011;40758;54.038;11.684;2023-07-02T11:07:54;9.95;;;2.50;;
7295;SDS011;40758;54.038;11.684;2023-07-02T11:10:23;4.90;;;2.03;;
7295;SDS011;40758;54.038;11.684;2023-07-02T11:12:51;5.95;;;2.65;;
7295;SDS011;40758;54.038;11.684;2023-07-02T11:15:19;5.10;;;3.13;;
7295;SDS011;40758;54.038;11.684;2023-07-02T11:17:47;6.97;;;1.95;;
7295;SDS011;40758;54.038;11.684;2023-07-02T11:20:14;6.13;;;2.25;;
7295;SDS011;40758;54.038;11.684;2023-07-02T11:22:42;5.28;;;2.08;;
7295;SDS011;40758;54.038;11.684;2023-07-02T11:25:09;6.28;;;1.90;;
7295;SDS011;40758;54.038;11.684;2023-07-02T11:27:40;7.38;;;1.67;;
7295;SDS011;40758;54.038;11.684;2023-07-02T11:30:08;5.75;;;1.98;;
7295;SDS011;40758;54.038;11.684;2023-07-02T11:32:46;6.60;;;2.25;;
7295;SDS011;40758;54.038;11.684;2023-07-02T11:35:15;4.47;;;2.00;;
7295;SDS011;40758;54.038;11.684;2023-07-02T11:37:43;6.05;;;2.08;;
7295;SDS011;40758;54.038;11.684;2023-07-02T11:40:11;8.65;;;3.08;;
7295;SDS011;40758;54.038;11.684;2023-07-02T11:42:38;7.57;;;2.28;;
7295;SDS011;40758;54.038;11.684;2023-07-02T11:45:05;5.97;;;1.48;;
7295;SDS011;40758;54.038;11.684;2023-07-02T11:47:32;4.15;;;1.40;;
7295;SDS011;40758;54.038;11.684;2023-07-02T11:49:59;10.10;;;1.60;;
7295;SDS011;40758;54.038;11.684;2023-07-02T11:52:37;9.30;;;2.15;;
7295;SDS011;40758;54.038;11.684;2023-07-02T11:55:04;12.18;;;3.60;;
7295;SDS011;40758;54.038;11.684;2023-07-02T11:57:31;7.38;;;2.42;;
7295;SDS011;40758;54.038;11.684;2023-07-02T11:59:58;6.82;;;2.65;;
7295;SDS011;40758;54.038;11.684;2023-07-02T12:02:26;6.63;;;2.25;;
7295;SDS011;40758;54.038;11.684;2023-07-02T12:04:53;7.95;;;2.33;;
7295;SDS011;40758;54.038;11.684;2023-07-02T12:07:20;8.65;;;2.80;;
7295;SDS011;40758;54.038;11.684;2023-07-02T12:09:48;7.88;;;2.25;;
7295;SDS011;40758;54.038;11.684;2023-07-02T12:12:16;7.88;;;1.73;;
7295;SDS011;40758;54.038;11.684;2023-07-02T12:14:43;9.90;;;4.88;;
7295;SDS011;40758;54.038;11.684;2023-07-02T12:17:10;13.60;;;4.22;;
7295;SDS011;40758;54.038;11.684;2023-07-02T12:19:39;6.07;;;1.90;;
7295;SDS011;40758;54.038;11.684;2023-07-02T12:22:06;8.32;;;2.60;;
7295;SDS011;40758;54.038;11.684;2023-07-02T12:24:33;9.05;;;2.53;;
7295;SDS011;40758;54.038;11.684;2023-07-02T12:27:00;3.85;;;1.33;;
7295;SDS011;40758;54.038;11.684;2023-07-02T12:29:27;7.07;;;2.20;;
7295;SDS011;40758;54.038;11.684;2023-07-02T12:31:53;7.47;;;1.65;;
7295;SDS011;40758;54.038;11.684;2023-07-02T12:34:21;7.18;;;2.30;;
7295;SDS011;40758;54.038;11.684;2023-07-02T12:36:48;8.65;;;1.52;;
7295;SDS011;40758;54.038;11.684;2023-07-02T12:39:16;5.00;;;2.03;;
7295;SDS011;40758;54.038;11.684;2023-07-02T12:41:46;6.03;;;1.13;;
7295;SDS011;40758;54.038;11.684;2023-07-02T12:44:13;4.80;;;1.52;;
7295;SDS011;40758;54.038;11.684;2023-07-02T12:46:40;6.53;;;1.65;;
7295;SDS011;40758;54.038;11.684;2023-07-02T12:49:06;9.43;;;2.50;;
7295;SDS011;40758;54.038;11.684;2023-07-02T12:51:33;6.18;;;1.45;;
7295;SDS011;40758;54.038;11.684;2023-07-02T12:54:00;5.63;;;1.70;;
7295;SDS011;40758;54.038;11.684;2023-07-02T12:56:26;4.32;;;1.50;;
7295;SDS011;40758;54.038;11.684;2023-07-02T12:58:53;5.07;;;1.42;;
7295;SDS011;40758;54.038;11.684;2023-07-02T13:01:21;7.70;;;2.00;;
7295;SDS011;40758;54.038;11.684;2023-07-02T13:03:49;7.13;;;2.17;;
7295;SDS011;40758;54.038;11.684;2023-07-02T13:06:16;7.95;;;1.67;;
7295;SDS011;40758;54.038;11.684;2023-07-02T13:08:43;7.78;;;1.92;;
7295;SDS011;40758;54.038;11.684;2023-07-02T13:11:10;5.40;;;3.75;;
7295;SDS011;40758;54.038;11.684;2023-07-02T13:13:37;5.60;;;1.92;;
7295;SDS011;40758;54.038;11.684;2023-07-02T13:16:03;8.38;;;2.22;;
7295;SDS011;40758;54.038;11.684;2023-07-02T13:18:30;7.00;;;1.45;;
7295;SDS011;40758;54.038;11.684;2023-07-02T13:20:57;5.18;;;1.20;;
7295;SDS011;40758;54.038;11.684;2023-07-02T13:23:24;4.35;;;1.50;;
7295;SDS011;40758;54.038;11.684;2023-07-02T13:25:51;3.03;;;0.77;;
7295;SDS011;40758;54.038;11.684;2023-07-02T13:28:18;5.88;;;1.70;;
7295;SDS011;40758;54.038;11.684;2023-07-02T13:30:48;7.85;;;1.48;;
7295;SDS011;40758;54.038;11.684;2023-07-02T13:33:16;4.68;;;1.73;;
7295;SDS011;40758;54.038;11.684;2023-07-02T13:35:48;6.10;;;2.13;;
7295;SDS011;40758;54.038;11.684;2023-07-02T13:38:18;4.63;;;2.88;;
7295;SDS011;40758;54.038;11.684;2023-07-02T13:40:44;5.20;;;1.90;;
7295;SDS011;40758;54.038;11.684;2023-07-02T13:43:11;3.75;;;1.10;;
7295;SDS011;40758;54.038;11.684;2023-07-02T13:45:38;5.50;;;1.38;;
7295;SDS011;40758;54.038;11.684;2023-07-02T13:48:05;7.30;;;1.65;;
7295;SDS011;40758;54.038;11.684;2023-07-02T13:50:32;6.82;;;1.80;;
7295;SDS011;40758;54.038;11.684;2023-07-02T13:52:58;8.05;;;1.55;;
7295;SDS011;40758;54.038;11.684;2023-07-02T13:55:25;3.58;;;0.88;;
7295;SDS011;40758;54.038;11.684;2023-07-02T13:57:57;4.63;;;1.65;;
7295;SDS011;40758;54.038;11.684;2023-07-02T14:00:24;5.78;;;1.20;;
7295;SDS011;40758;54.038;11.684;2023-07-02T14:02:51;7.38;;;1.33;;
7295;SDS011;40758;54.038;11.684;2023-07-02T14:05:18;8.00;;;3.13;;
7295;SDS011;40758;54.038;11.684;2023-07-02T14:07:47;4.38;;;1.70;;
7295;SDS011;40758;54.038;11.684;2023-07-02T14:10:14;4.75;;;1.60;;
7295;SDS011;40758;54.038;11.684;2023-07-02T14:12:41;6.65;;;3.60;;
7295;SDS011;40758;54.038;11.684;2023-07-02T14:15:08;6.30;;;1.50;;
7295;SDS011;40758;54.038;11.684;2023-07-02T14:17:36;5.88;;;2.30;;
7295;SDS011;40758;54.038;11.684;2023-07-02T14:20:03;7.10;;;2.03;;
7295;SDS011;40758;54.038;11.684;2023-07-02T14:22:30;4.75;;;1.88;;
7295;SDS011;40758;54.038;11.684;2023-07-02T14:24:57;4.70;;;1.77;;
7295;SDS011;40758;54.038;11.684;2023-07-02T14:27:24;4.97;;;1.85;;
7295;SDS011;40758;54.038;11.684;2023-07-02T14:29:51;7.68;;;2.25;;
7295;SDS011;40758;54.038;11.684;2023-07-02T14:32:18;4.43;;;1.25;;
7295;SDS011;40758;54.038;11.684;2023-07-02T14:34:45;5.88;;;1.20;;
7295;SDS011;40758;54.038;11.684;2023-07-02T14:37:11;4.97;;;1.00;;
7295;SDS011;40758;54.038;11.684;2023-07-02T14:39:38;4.78;;;1.10;;
7295;SDS011;40758;54.038;11.684;2023-07-02T14:42:09;6.75;;;1.50;;
7295;SDS011;40758;54.038;11.684;2023-07-02T14:44:35;3.75;;;0.88;;
7295;SDS011;40758;54.038;11.684;2023-07-02T14:47:02;6.05;;;1.25;;
7295;SDS011;40758;54.038;11.684;2023-07-02T14:49:29;7.18;;;1.00;;
7295;SDS011;40758;54.038;11.684;2023-07-02T14:51:56;3.47;;;1.27;;
7295;SDS011;40758;54.038;11.684;2023-07-02T14:54:22;4.55;;;1.30;;
7295;SDS011;40758;54.038;11.684;2023-07-02T14:56:49;3.85;;;1.55;;
7295;SDS011;40758;54.038;11.684;2023-07-02T14:59:16;4.00;;;1.70;;
7295;SDS011;40758;54.038;11.684;2023-07-02T15:01:43;8.65;;;2.53;;
7295;SDS011;40758;54.038;11.684;2023-07-02T15:04:11;6.85;;;1.40;;
7295;SDS011;40758;54.038;11.684;2023-07-02T15:06:38;3.15;;;1.17;;
7295;SDS011;40758;54.038;11.684;2023-07-02T15:09:05;2.45;;;1.20;;
7295;SDS011;40758;54.038;11.684;2023-07-02T15:11:31;3.40;;;0.95;;
7295;SDS011;40758;54.038;11.684;2023-07-02T15:13:58;4.28;;;1.17;;
7295;SDS011;40758;54.038;11.684;2023-07-02T15:16:25;3.45;;;0.70;;
7295;SDS011;40758;54.038;11.684;2023-07-02T15:18:52;6.57;;;1.75;;
7295;SDS011;40758;54.038;11.684;2023-07-02T15:21:22;3.72;;;1.65;;
7295;SDS011;40758;54.038;11.684;2023-07-02T15:23:51;7.00;;;1.85;;